sensor_id;sensor_type;location;lat;lon;timestamp;temperature;humidity
32400;DHT22;45045;45.440;9.178;2022-12-22T00:02:43;10.50;99.90
32400;DHT22;45045;45.440;9.178;2022-12-22T00:05:27;10.50;99.90
32400;DHT22;45045;45.440;9.178;2022-12-22T00:08:11;10.50;99.90
32400;DHT22;45045;45.440;9.178;2022-12-22T00:10:56;10.50;99.90
32400;DHT22;45045;45.440;9.178;2022-12-22T00:13:43;10.50;99.90
32400;DHT22;45045;45.440;9.178;2022-12-22T00:16:33;10.50;99.90
32400;DHT22;45045;45.440;9.178;2022-12-22T00:19:18;10.50;99.90
32400;DHT22;45045;45.440;9.178;2022-12-22T00:22:32;10.50;99.90
32400;DHT22;45045;45.440;9.178;2022-12-22T00:25:16;10.40;99.90
32400;DHT22;45045;45.440;9.178;2022-12-22T00:28:02;10.50;99.90
32400;DHT22;45045;45.440;9.178;2022-12-22T00:30:49;10.70;99.90
32400;DHT22;45045;45.440;9.178;2022-12-22T00:33:33;10.90;99.90
32400;DHT22;45045;45.440;9.178;2022-12-22T00:36:19;11.00;99.90
32400;DHT22;45045;45.440;9.178;2022-12-22T00:39:11;11.00;99.90
32400;DHT22;45045;45.440;9.178;2022-12-22T00:41:55;11.00;99.90
32400;DHT22;45045;45.440;9.178;2022-12-22T00:44:39;11.10;99.90
32400;DHT22;45045;45.440;9.178;2022-12-22T00:47:26;11.00;99.90
32400;DHT22;45045;45.440;9.178;2022-12-22T00:50:12;11.00;99.90
32400;DHT22;45045;45.440;9.178;2022-12-22T00:52:57;11.10;99.90
32400;DHT22;45045;45.440;9.178;2022-12-22T00:55:42;11.10;99.90
32400;DHT22;45045;45.440;9.178;2022-12-22T00:58:26;11.00;99.90
32400;DHT22;45045;45.440;9.178;2022-12-22T01:01:11;11.00;99.90
32400;DHT22;45045;45.440;9.178;2022-12-22T01:03:56;11.00;99.90
32400;DHT22;45045;45.440;9.178;2022-12-22T01:06:40;11.00;99.90
32400;DHT22;45045;45.440;9.178;2022-12-22T01:09:25;10.90;99.90
32400;DHT22;45045;45.440;9.178;2022-12-22T01:12:21;11.00;99.90
32400;DHT22;45045;45.440;9.178;2022-12-22T01:15:17;11.00;99.90
32400;DHT22;45045;45.440;9.178;2022-12-22T01:18:02;11.00;99.90
32400;DHT22;45045;45.440;9.178;2022-12-22T01:20:46;10.90;99.90
32400;DHT22;45045;45.440;9.178;2022-12-22T01:23:30;10.90;99.90
32400;DHT22;45045;45.440;9.178;2022-12-22T01:26:15;10.90;99.90
32400;DHT22;45045;45.440;9.178;2022-12-22T01:28:59;11.00;99.90
32400;DHT22;45045;45.440;9.178;2022-12-22T01:31:43;11.00;99.90
32400;DHT22;45045;45.440;9.178;2022-12-22T01:34:27;10.90;99.90
32400;DHT22;45045;45.440;9.178;2022-12-22T01:37:11;10.90;99.90
32400;DHT22;45045;45.440;9.178;2022-12-22T01:39:55;10.90;99.90
32400;DHT22;45045;45.440;9.178;2022-12-22T01:42:39;10.90;99.90
32400;DHT22;45045;45.440;9.178;2022-12-22T01:45:26;11.00;99.90
32400;DHT22;45045;45.440;9.178;2022-12-22T01:48:15;11.00;99.90
32400;DHT22;45045;45.440;9.178;2022-12-22T01:51:04;11.10;99.90
32400;DHT22;45045;45.440;9.178;2022-12-22T01:53:50;11.00;99.90
32400;DHT22;45045;45.440;9.178;2022-12-22T01:56:34;11.00;99.90
32400;DHT22;45045;45.440;9.178;2022-12-22T01:59:18;11.00;99.90
32400;DHT22;45045;45.440;9.178;2022-12-22T02:02:07;11.00;99.90
32400;DHT22;45045;45.440;9.178;2022-12-22T02:04:53;11.00;99.90
32400;DHT22;45045;45.440;9.178;2022-12-22T02:17:15;11.30;99.90
32400;DHT22;45045;45.440;9.178;2022-12-22T02:20:33;11.20;99.90
32400;DHT22;45045;45.440;9.178;2022-12-22T02:29:26;11.20;99.90
32400;DHT22;45045;45.440;9.178;2022-12-22T02:32:11;11.20;99.90
32400;DHT22;45045;45.440;9.178;2022-12-22T02:34:55;11.10;99.90
32400;DHT22;45045;45.440;9.178;2022-12-22T02:44:17;11.20;99.90
32400;DHT22;45045;45.440;9.178;2022-12-22T02:50:30;11.20;99.90
32400;DHT22;45045;45.440;9.178;2022-12-22T02:53:17;11.20;99.90
32400;DHT22;45045;45.440;9.178;2022-12-22T02:56:05;11.10;99.90
32400;DHT22;45045;45.440;9.178;2022-12-22T02:58:51;11.10;99.90
32400;DHT22;45045;45.440;9.178;2022-12-22T03:01:36;11.10;99.90
32400;DHT22;45045;45.440;9.178;2022-12-22T03:04:20;11.20;99.90
32400;DHT22;45045;45.440;9.178;2022-12-22T03:07:04;11.20;99.90
32400;DHT22;45045;45.440;9.178;2022-12-22T03:09:48;11.20;99.90
32400;DHT22;45045;45.440;9.178;2022-12-22T03:12:32;11.10;99.90
32400;DHT22;45045;45.440;9.178;2022-12-22T03:15:16;11.20;99.90
32400;DHT22;45045;45.440;9.178;2022-12-22T03:18:06;11.10;99.90
32400;DHT22;45045;45.440;9.178;2022-12-22T03:20:50;11.10;99.90
32400;DHT22;45045;45.440;9.178;2022-12-22T03:23:34;11.10;99.90
32400;DHT22;45045;45.440;9.178;2022-12-22T03:26:19;10.90;99.90
32400;DHT22;45045;45.440;9.178;2022-12-22T03:28:44;10.80;99.90
32400;DHT22;45045;45.440;9.178;2022-12-22T03:31:10;10.70;99.90
32400;DHT22;45045;45.440;9.178;2022-12-22T03:33:36;10.60;99.90
32400;DHT22;45045;45.440;9.178;2022-12-22T03:36:03;10.60;99.90
32400;DHT22;45045;45.440;9.178;2022-12-22T03:38:28;10.60;99.90
32400;DHT22;45045;45.440;9.178;2022-12-22T03:40:54;10.60;99.90
32400;DHT22;45045;45.440;9.178;2022-12-22T03:43:20;10.60;99.90
32400;DHT22;45045;45.440;9.178;2022-12-22T03:46:05;10.60;99.90
32400;DHT22;45045;45.440;9.178;2022-12-22T03:48:56;10.60;99.90
32400;DHT22;45045;45.440;9.178;2022-12-22T03:51:47;10.60;99.90
32400;DHT22;45045;45.440;9.178;2022-12-22T03:54:15;10.60;99.90
32400;DHT22;45045;45.440;9.178;2022-12-22T03:56:41;10.60;99.90
32400;DHT22;45045;45.440;9.178;2022-12-22T03:59:07;10.60;99.90
32400;DHT22;45045;45.440;9.178;2022-12-22T04:01:36;10.60;99.90
32400;DHT22;45045;45.440;9.178;2022-12-22T04:04:02;10.60;99.90
32400;DHT22;45045;45.440;9.178;2022-12-22T04:06:28;10.60;99.90
32400;DHT22;45045;45.440;9.178;2022-12-22T04:08:54;10.70;99.90
32400;DHT22;45045;45.440;9.178;2022-12-22T04:11:19;10.60;99.90
32400;DHT22;45045;45.440;9.178;2022-12-22T04:14:03;10.70;99.90
32400;DHT22;45045;45.440;9.178;2022-12-22T04:16:30;10.70;99.90
32400;DHT22;45045;45.440;9.178;2022-12-22T04:18:56;10.70;99.90
32400;DHT22;45045;45.440;9.178;2022-12-22T04:21:22;10.70;99.90
32400;DHT22;45045;45.440;9.178;2022-12-22T04:23:48;10.70;99.90
32400;DHT22;45045;45.440;9.178;2022-12-22T04:26:19;10.70;99.90
32400;DHT22;45045;45.440;9.178;2022-12-22T04:28:45;10.70;99.90
32400;DHT22;45045;45.440;9.178;2022-12-22T04:31:11;10.70;99.90
32400;DHT22;45045;45.440;9.178;2022-12-22T04:33:37;10.70;99.90
32400;DHT22;45045;45.440;9.178;2022-12-22T04:36:03;10.70;99.90
32400;DHT22;45045;45.440;9.178;2022-12-22T04:38:29;10.70;99.90
32400;DHT22;45045;45.440;9.178;2022-12-22T04:40:55;10.70;99.90
32400;DHT22;45045;45.440;9.178;2022-12-22T04:43:21;10.70;99.90
32400;DHT22;45045;45.440;9.178;2022-12-22T04:45:46;10.80;99.90
32400;DHT22;45045;45.440;9.178;2022-12-22T04:48:16;10.70;99.90
32400;DHT22;45045;45.440;9.178;2022-12-22T04:50:42;10.70;99.90
32400;DHT22;45045;45.440;9.178;2022-12-22T04:53:07;10.70;99.90
32400;DHT22;45045;45.440;9.178;2022-12-22T04:55:33;10.70;99.90
32400;DHT22;45045;45.440;9.178;2022-12-22T04:57:59;10.70;99.90
32400;DHT22;45045;45.440;9.178;2022-12-22T05:00:24;10.70;99.90
32400;DHT22;45045;45.440;9.178;2022-12-22T05:02:51;10.70;99.90
32400;DHT22;45045;45.440;9.178;2022-12-22T05:05:17;10.70;99.90
32400;DHT22;45045;45.440;9.178;2022-12-22T05:07:43;10.70;99.90
32400;DHT22;45045;45.440;9.178;2022-12-22T05:10:09;10.70;99.90
32400;DHT22;45045;45.440;9.178;2022-12-22T05:12:35;10.80;99.90
32400;DHT22;45045;45.440;9.178;2022-12-22T05:15:23;10.70;99.90
32400;DHT22;45045;45.440;9.178;2022-12-22T05:17:49;10.80;99.90
32400;DHT22;45045;45.440;9.178;2022-12-22T05:20:15;10.70;99.90
32400;DHT22;45045;45.440;9.178;2022-12-22T05:22:41;10.80;99.90
32400;DHT22;45045;45.440;9.178;2022-12-22T05:25:07;10.80;99.90
32400;DHT22;45045;45.440;9.178;2022-12-22T05:27:33;10.80;99.90
32400;DHT22;45045;45.440;9.178;2022-12-22T05:29:59;10.70;99.90
32400;DHT22;45045;45.440;9.178;2022-12-22T05:32:24;10.80;99.90
32400;DHT22;45045;45.440;9.178;2022-12-22T05:34:50;10.80;99.90
32400;DHT22;45045;45.440;9.178;2022-12-22T05:37:16;10.70;99.90
32400;DHT22;45045;45.440;9.178;2022-12-22T05:39:42;10.70;99.90
32400;DHT22;45045;45.440;9.178;2022-12-22T05:42:08;10.60;99.90
32400;DHT22;45045;45.440;9.178;2022-12-22T05:44:33;10.60;99.90
32400;DHT22;45045;45.440;9.178;2022-12-22T05:46:59;10.50;99.90
32400;DHT22;45045;45.440;9.178;2022-12-22T05:49:25;10.50;99.90
32400;DHT22;45045;45.440;9.178;2022-12-22T05:51:50;10.40;99.90
32400;DHT22;45045;45.440;9.178;2022-12-22T05:54:18;10.40;99.90
32400;DHT22;45045;45.440;9.178;2022-12-22T05:56:44;10.30;99.90
32400;DHT22;45045;45.440;9.178;2022-12-22T05:59:10;10.40;99.90
32400;DHT22;45045;45.440;9.178;2022-12-22T06:01:36;10.50;99.90
32400;DHT22;45045;45.440;9.178;2022-12-22T06:04:02;10.50;99.90
32400;DHT22;45045;45.440;9.178;2022-12-22T06:06:28;10.50;99.90
32400;DHT22;45045;45.440;9.178;2022-12-22T06:08:54;10.50;99.90
32400;DHT22;45045;45.440;9.178;2022-12-22T06:11:19;10.50;99.90
32400;DHT22;45045;45.440;9.178;2022-12-22T06:13:45;10.50;99.90
32400;DHT22;45045;45.440;9.178;2022-12-22T06:16:11;10.50;99.90
32400;DHT22;45045;45.440;9.178;2022-12-22T06:18:37;10.50;99.90
32400;DHT22;45045;45.440;9.178;2022-12-22T06:21:02;10.60;99.90
32400;DHT22;45045;45.440;9.178;2022-12-22T06:23:28;10.50;99.90
32400;DHT22;45045;45.440;9.178;2022-12-22T06:26:01;10.60;99.90
32400;DHT22;45045;45.440;9.178;2022-12-22T06:28:27;11.40;99.90
32400;DHT22;45045;45.440;9.178;2022-12-22T06:30:53;11.20;99.90
32400;DHT22;45045;45.440;9.178;2022-12-22T06:33:19;11.00;99.90
32400;DHT22;45045;45.440;9.178;2022-12-22T06:35:45;10.90;99.90
32400;DHT22;45045;45.440;9.178;2022-12-22T06:38:11;10.80;99.90
32400;DHT22;45045;45.440;9.178;2022-12-22T06:40:37;10.80;99.90
32400;DHT22;45045;45.440;9.178;2022-12-22T06:43:03;10.80;99.90
32400;DHT22;45045;45.440;9.178;2022-12-22T06:45:37;10.80;99.90
32400;DHT22;45045;45.440;9.178;2022-12-22T06:48:03;10.80;99.90
32400;DHT22;45045;45.440;9.178;2022-12-22T06:50:29;10.80;99.90
32400;DHT22;45045;45.440;9.178;2022-12-22T06:52:55;10.80;99.90
32400;DHT22;45045;45.440;9.178;2022-12-22T06:55:21;10.80;99.90
32400;DHT22;45045;45.440;9.178;2022-12-22T06:57:46;10.80;99.90
32400;DHT22;45045;45.440;9.178;2022-12-22T07:00:12;10.80;99.90
32400;DHT22;45045;45.440;9.178;2022-12-22T07:02:38;10.90;99.90
32400;DHT22;45045;45.440;9.178;2022-12-22T07:05:04;10.90;99.90
32400;DHT22;45045;45.440;9.178;2022-12-22T07:07:30;10.90;99.90
32400;DHT22;45045;45.440;9.178;2022-12-22T07:09:57;10.90;99.90
32400;DHT22;45045;45.440;9.178;2022-12-22T07:12:23;11.00;99.90
32400;DHT22;45045;45.440;9.178;2022-12-22T07:14:49;10.90;99.90
32400;DHT22;45045;45.440;9.178;2022-12-22T07:17:14;10.90;99.90
32400;DHT22;45045;45.440;9.178;2022-12-22T07:19:40;10.90;99.90
32400;DHT22;45045;45.440;9.178;2022-12-22T07:22:06;10.90;99.90
32400;DHT22;45045;45.440;9.178;2022-12-22T07:24:32;10.90;99.90
32400;DHT22;45045;45.440;9.178;2022-12-22T07:26:58;10.80;99.90
32400;DHT22;45045;45.440;9.178;2022-12-22T07:29:23;10.80;99.90
32400;DHT22;45045;45.440;9.178;2022-12-22T07:31:50;10.80;99.90
32400;DHT22;45045;45.440;9.178;2022-12-22T07:34:16;10.90;99.90
32400;DHT22;45045;45.440;9.178;2022-12-22T07:36:41;10.90;99.90
32400;DHT22;45045;45.440;9.178;2022-12-22T07:39:07;10.80;99.90
32400;DHT22;45045;45.440;9.178;2022-12-22T07:41:33;10.90;99.90
32400;DHT22;45045;45.440;9.178;2022-12-22T07:44:17;10.80;99.90
32400;DHT22;45045;45.440;9.178;2022-12-22T07:46:43;11.00;99.90
32400;DHT22;45045;45.440;9.178;2022-12-22T07:49:09;10.90;99.90
32400;DHT22;45045;45.440;9.178;2022-12-22T07:51:57;10.90;99.90
32400;DHT22;45045;45.440;9.178;2022-12-22T07:54:24;10.90;99.90
32400;DHT22;45045;45.440;9.178;2022-12-22T07:56:50;10.90;99.90
32400;DHT22;45045;45.440;9.178;2022-12-22T07:59:16;10.90;99.90
32400;DHT22;45045;45.440;9.178;2022-12-22T08:01:42;10.80;99.90
32400;DHT22;45045;45.440;9.178;2022-12-22T08:04:09;10.80;99.90
32400;DHT22;45045;45.440;9.178;2022-12-22T08:06:35;10.80;99.90
32400;DHT22;45045;45.440;9.178;2022-12-22T08:09:02;10.80;99.90
32400;DHT22;45045;45.440;9.178;2022-12-22T08:11:28;10.80;99.90
32400;DHT22;45045;45.440;9.178;2022-12-22T08:13:54;10.90;99.90
32400;DHT22;45045;45.440;9.178;2022-12-22T08:16:19;11.00;99.90
32400;DHT22;45045;45.440;9.178;2022-12-22T08:18:47;10.90;99.90
32400;DHT22;45045;45.440;9.178;2022-12-22T08:21:14;10.90;99.90
32400;DHT22;45045;45.440;9.178;2022-12-22T08:23:40;10.90;99.90
32400;DHT22;45045;45.440;9.178;2022-12-22T08:26:32;11.00;99.90
32400;DHT22;45045;45.440;9.178;2022-12-22T08:29:05;11.20;99.90
32400;DHT22;45045;45.440;9.178;2022-12-22T08:31:32;11.00;99.90
32400;DHT22;45045;45.440;9.178;2022-12-22T08:34:00;10.90;99.90
32400;DHT22;45045;45.440;9.178;2022-12-22T08:36:29;10.70;99.90
32400;DHT22;45045;45.440;9.178;2022-12-22T08:38:56;10.80;99.90
32400;DHT22;45045;45.440;9.178;2022-12-22T08:41:23;10.80;99.90
32400;DHT22;45045;45.440;9.178;2022-12-22T08:44:08;10.90;99.90
32400;DHT22;45045;45.440;9.178;2022-12-22T08:46:33;11.10;99.90
32400;DHT22;45045;45.440;9.178;2022-12-22T08:48:59;11.80;99.90
32400;DHT22;45045;45.440;9.178;2022-12-22T08:51:25;11.80;99.90
32400;DHT22;45045;45.440;9.178;2022-12-22T08:53:50;12.40;99.90
32400;DHT22;45045;45.440;9.178;2022-12-22T08:56:16;12.80;99.90
32400;DHT22;45045;45.440;9.178;2022-12-22T08:58:42;13.00;99.90
32400;DHT22;45045;45.440;9.178;2022-12-22T09:01:17;13.00;99.90
32400;DHT22;45045;45.440;9.178;2022-12-22T09:03:47;13.30;99.90
32400;DHT22;45045;45.440;9.178;2022-12-22T09:06:13;13.50;99.90
32400;DHT22;45045;45.440;9.178;2022-12-22T09:08:39;13.60;99.90
32400;DHT22;45045;45.440;9.178;2022-12-22T09:11:05;13.50;99.90
32400;DHT22;45045;45.440;9.178;2022-12-22T09:13:31;13.40;99.90
32400;DHT22;45045;45.440;9.178;2022-12-22T09:15:56;13.20;99.90
32400;DHT22;45045;45.440;9.178;2022-12-22T09:18:22;13.40;99.90
32400;DHT22;45045;45.440;9.178;2022-12-22T09:20:54;13.60;99.90
32400;DHT22;45045;45.440;9.178;2022-12-22T09:23:20;13.50;99.90
32400;DHT22;45045;45.440;9.178;2022-12-22T09:25:45;13.70;99.90
32400;DHT22;45045;45.440;9.178;2022-12-22T09:28:11;13.50;99.90
32400;DHT22;45045;45.440;9.178;2022-12-22T09:30:37;13.40;99.90
32400;DHT22;45045;45.440;9.178;2022-12-22T09:33:03;13.10;99.90
32400;DHT22;45045;45.440;9.178;2022-12-22T09:35:28;13.30;99.90
32400;DHT22;45045;45.440;9.178;2022-12-22T09:37:54;13.60;99.90
32400;DHT22;45045;45.440;9.178;2022-12-22T09:40:20;13.60;99.90
32400;DHT22;45045;45.440;9.178;2022-12-22T09:42:47;13.60;99.90
32400;DHT22;45045;45.440;9.178;2022-12-22T09:45:14;13.50;99.90
32400;DHT22;45045;45.440;9.178;2022-12-22T09:47:47;13.60;99.90
32400;DHT22;45045;45.440;9.178;2022-12-22T09:50:20;13.60;99.90
32400;DHT22;45045;45.440;9.178;2022-12-22T09:52:57;13.70;99.90
32400;DHT22;45045;45.440;9.178;2022-12-22T09:57:50;14.00;99.90
32400;DHT22;45045;45.440;9.178;2022-12-22T10:00:19;14.00;99.90
32400;DHT22;45045;45.440;9.178;2022-12-22T10:06:19;13.60;99.90
32400;DHT22;45045;45.440;9.178;2022-12-22T10:08:42;13.50;99.90
32400;DHT22;45045;45.440;9.178;2022-12-22T10:11:15;13.80;99.90
32400;DHT22;45045;45.440;9.178;2022-12-22T10:13:42;13.80;99.90
32400;DHT22;45045;45.440;9.178;2022-12-22T10:16:24;14.00;99.90
32400;DHT22;45045;45.440;9.178;2022-12-22T10:19:06;13.80;99.90
32400;DHT22;45045;45.440;9.178;2022-12-22T10:21:32;14.10;99.90
32400;DHT22;45045;45.440;9.178;2022-12-22T10:23:58;14.40;99.90
32400;DHT22;45045;45.440;9.178;2022-12-22T10:26:27;14.50;99.90
32400;DHT22;45045;45.440;9.178;2022-12-22T10:29:08;14.40;99.90
32400;DHT22;45045;45.440;9.178;2022-12-22T10:31:54;14.30;99.90
32400;DHT22;45045;45.440;9.178;2022-12-22T10:34:20;14.40;99.90
32400;DHT22;45045;45.440;9.178;2022-12-22T10:36:51;14.50;99.90
32400;DHT22;45045;45.440;9.178;2022-12-22T10:39:29;14.60;99.90
32400;DHT22;45045;45.440;9.178;2022-12-22T10:41:59;14.70;99.90
32400;DHT22;45045;45.440;9.178;2022-12-22T10:44:28;14.40;99.90
32400;DHT22;45045;45.440;9.178;2022-12-22T10:46:58;14.40;99.90
32400;DHT22;45045;45.440;9.178;2022-12-22T10:49:26;14.60;99.90
32400;DHT22;45045;45.440;9.178;2022-12-22T10:54:37;14.90;99.90
32400;DHT22;45045;45.440;9.178;2022-12-22T10:59:52;14.80;99.90
32400;DHT22;45045;45.440;9.178;2022-12-22T11:04:51;14.50;99.90
32400;DHT22;45045;45.440;9.178;2022-12-22T11:07:17;13.90;99.90
32400;DHT22;45045;45.440;9.178;2022-12-22T11:09:43;13.70;99.90
32400;DHT22;45045;45.440;9.178;2022-12-22T11:12:31;13.60;99.90
32400;DHT22;45045;45.440;9.178;2022-12-22T11:15:03;13.70;99.90
32400;DHT22;45045;45.440;9.178;2022-12-22T11:29:27;13.40;99.90
32400;DHT22;45045;45.440;9.178;2022-12-22T11:35:01;13.40;99.90
32400;DHT22;45045;45.440;9.178;2022-12-22T11:37:43;13.40;99.90
32400;DHT22;45045;45.440;9.178;2022-12-22T11:43:27;13.30;99.90
32400;DHT22;45045;45.440;9.178;2022-12-22T11:46:24;13.40;99.90
32400;DHT22;45045;45.440;9.178;2022-12-22T11:51:38;13.10;99.90
32400;DHT22;45045;45.440;9.178;2022-12-22T11:56:54;13.00;99.90
32400;DHT22;45045;45.440;9.178;2022-12-22T12:07:35;12.90;99.90
32400;DHT22;45045;45.440;9.178;2022-12-22T12:10:27;12.90;99.90
32400;DHT22;45045;45.440;9.178;2022-12-22T12:15:54;12.70;99.90
32400;DHT22;45045;45.440;9.178;2022-12-22T12:18:36;12.60;99.90
32400;DHT22;45045;45.440;9.178;2022-12-22T12:21:19;12.60;99.90
32400;DHT22;45045;45.440;9.178;2022-12-22T12:29:19;14.50;99.90
32400;DHT22;45045;45.440;9.178;2022-12-22T12:31:59;14.80;99.90
32400;DHT22;45045;45.440;9.178;2022-12-22T12:34:26;14.60;99.90
32400;DHT22;45045;45.440;9.178;2022-12-22T12:37:06;13.80;99.90
32400;DHT22;45045;45.440;9.178;2022-12-22T12:40:04;13.20;99.90
32400;DHT22;45045;45.440;9.178;2022-12-22T12:42:36;12.90;99.90
32400;DHT22;45045;45.440;9.178;2022-12-22T12:45:43;12.70;99.90
32400;DHT22;45045;45.440;9.178;2022-12-22T12:50:57;12.60;99.90
32400;DHT22;45045;45.440;9.178;2022-12-22T12:53:25;12.60;99.90
32400;DHT22;45045;45.440;9.178;2022-12-22T12:55:56;12.60;99.90
32400;DHT22;45045;45.440;9.178;2022-12-22T13:01:03;12.60;99.90
32400;DHT22;45045;45.440;9.178;2022-12-22T13:06:00;12.50;99.90
32400;DHT22;45045;45.440;9.178;2022-12-22T13:23:39;12.70;99.90
32400;DHT22;45045;45.440;9.178;2022-12-22T13:28:35;12.60;99.90
32400;DHT22;45045;45.440;9.178;2022-12-22T13:33:58;12.50;99.90
32400;DHT22;45045;45.440;9.178;2022-12-22T13:36:27;12.50;99.90
32400;DHT22;45045;45.440;9.178;2022-12-22T13:39:04;12.50;99.90
32400;DHT22;45045;45.440;9.178;2022-12-22T13:41:32;12.40;99.90
32400;DHT22;45045;45.440;9.178;2022-12-22T13:44:04;12.50;99.90
32400;DHT22;45045;45.440;9.178;2022-12-22T13:46:35;12.60;99.90
32400;DHT22;45045;45.440;9.178;2022-12-22T13:49:01;12.60;99.90
32400;DHT22;45045;45.440;9.178;2022-12-22T13:51:35;12.70;99.90
32400;DHT22;45045;45.440;9.178;2022-12-22T13:56:36;12.50;99.90
32400;DHT22;45045;45.440;9.178;2022-12-22T13:59:03;12.60;99.90
32400;DHT22;45045;45.440;9.178;2022-12-22T14:01:29;12.60;99.90
32400;DHT22;45045;45.440;9.178;2022-12-22T14:04:01;12.60;99.90
32400;DHT22;45045;45.440;9.178;2022-12-22T14:09:18;12.80;99.90
32400;DHT22;45045;45.440;9.178;2022-12-22T14:11:48;12.90;99.90
32400;DHT22;45045;45.440;9.178;2022-12-22T14:14:19;12.70;99.90
32400;DHT22;45045;45.440;9.178;2022-12-22T14:16:50;12.70;99.90
32400;DHT22;45045;45.440;9.178;2022-12-22T14:19:17;12.60;99.90
32400;DHT22;45045;45.440;9.178;2022-12-22T14:21:47;12.60;99.90
32400;DHT22;45045;45.440;9.178;2022-12-22T14:24:21;12.50;99.90
32400;DHT22;45045;45.440;9.178;2022-12-22T14:26:48;12.40;99.90
32400;DHT22;45045;45.440;9.178;2022-12-22T14:29:17;12.40;99.90
32400;DHT22;45045;45.440;9.178;2022-12-22T14:32:10;12.40;99.90
32400;DHT22;45045;45.440;9.178;2022-12-22T14:34:37;12.50;99.90
32400;DHT22;45045;45.440;9.178;2022-12-22T14:37:02;12.50;99.90
32400;DHT22;45045;45.440;9.178;2022-12-22T14:39:30;12.50;99.90
32400;DHT22;45045;45.440;9.178;2022-12-22T14:42:00;12.50;99.90
32400;DHT22;45045;45.440;9.178;2022-12-22T14:44:44;12.40;99.90
32400;DHT22;45045;45.440;9.178;2022-12-22T14:49:47;12.40;99.90
32400;DHT22;45045;45.440;9.178;2022-12-22T14:54:52;12.60;99.90
32400;DHT22;45045;45.440;9.178;2022-12-22T14:57:33;12.60;99.90
32400;DHT22;45045;45.440;9.178;2022-12-22T15:00:03;12.80;99.90
32400;DHT22;45045;45.440;9.178;2022-12-22T15:02:37;12.70;99.90
32400;DHT22;45045;45.440;9.178;2022-12-22T15:05:25;12.80;99.90
32400;DHT22;45045;45.440;9.178;2022-12-22T15:07:53;12.80;99.90
32400;DHT22;45045;45.440;9.178;2022-12-22T15:10:19;12.80;99.90
32400;DHT22;45045;45.440;9.178;2022-12-22T15:12:46;12.80;99.90
32400;DHT22;45045;45.440;9.178;2022-12-22T15:15:18;12.60;99.90
32400;DHT22;45045;45.440;9.178;2022-12-22T15:17:47;12.70;99.90
32400;DHT22;45045;45.440;9.178;2022-12-22T15:20:23;12.70;99.90
32400;DHT22;45045;45.440;9.178;2022-12-22T15:22:49;12.60;99.90
32400;DHT22;45045;45.440;9.178;2022-12-22T15:25:23;12.60;99.90
32400;DHT22;45045;45.440;9.178;2022-12-22T15:27:49;12.60;99.90
32400;DHT22;45045;45.440;9.178;2022-12-22T15:30:20;12.60;99.90
32400;DHT22;45045;45.440;9.178;2022-12-22T15:32:46;12.50;99.90
32400;DHT22;45045;45.440;9.178;2022-12-22T15:35:23;12.50;99.90
32400;DHT22;45045;45.440;9.178;2022-12-22T15:37:49;12.50;99.90
32400;DHT22;45045;45.440;9.178;2022-12-22T15:40:18;12.40;99.90
32400;DHT22;45045;45.440;9.178;2022-12-22T15:42:44;12.40;99.90
32400;DHT22;45045;45.440;9.178;2022-12-22T15:45:10;12.30;99.90
32400;DHT22;45045;45.440;9.178;2022-12-22T15:47:36;12.20;99.90
32400;DHT22;45045;45.440;9.178;2022-12-22T15:50:02;12.20;99.90
32400;DHT22;45045;45.440;9.178;2022-12-22T15:52:30;12.20;99.90
32400;DHT22;45045;45.440;9.178;2022-12-22T15:54:56;12.20;99.90
32400;DHT22;45045;45.440;9.178;2022-12-22T15:57:22;12.20;99.90
32400;DHT22;45045;45.440;9.178;2022-12-22T15:59:48;12.20;99.90
32400;DHT22;45045;45.440;9.178;2022-12-22T16:02:14;12.10;99.90
32400;DHT22;45045;45.440;9.178;2022-12-22T16:04:40;12.20;99.90
32400;DHT22;45045;45.440;9.178;2022-12-22T16:07:05;12.30;99.90
32400;DHT22;45045;45.440;9.178;2022-12-22T16:09:40;12.20;99.90
32400;DHT22;45045;45.440;9.178;2022-12-22T16:12:17;12.10;99.90
32400;DHT22;45045;45.440;9.178;2022-12-22T16:14:46;12.00;99.90
32400;DHT22;45045;45.440;9.178;2022-12-22T16:17:26;12.00;99.90
32400;DHT22;45045;45.440;9.178;2022-12-22T16:19:52;12.00;99.90
32400;DHT22;45045;45.440;9.178;2022-12-22T16:22:21;11.90;99.90
32400;DHT22;45045;45.440;9.178;2022-12-22T16:24:51;11.90;99.90
32400;DHT22;45045;45.440;9.178;2022-12-22T16:27:16;12.00;99.90
32400;DHT22;45045;45.440;9.178;2022-12-22T16:29:43;11.90;99.90
32400;DHT22;45045;45.440;9.178;2022-12-22T16:34:48;11.80;99.90
32400;DHT22;45045;45.440;9.178;2022-12-22T16:37:14;11.80;99.90
32400;DHT22;45045;45.440;9.178;2022-12-22T16:39:40;11.80;99.90
32400;DHT22;45045;45.440;9.178;2022-12-22T16:42:12;11.70;99.90
32400;DHT22;45045;45.440;9.178;2022-12-22T16:44:40;11.60;99.90
32400;DHT22;45045;45.440;9.178;2022-12-22T16:47:09;11.50;99.90
32400;DHT22;45045;45.440;9.178;2022-12-22T16:49:37;11.60;99.90
32400;DHT22;45045;45.440;9.178;2022-12-22T16:52:03;11.60;99.90
32400;DHT22;45045;45.440;9.178;2022-12-22T16:54:29;11.70;99.90
32400;DHT22;45045;45.440;9.178;2022-12-22T16:56:55;11.70;99.90
32400;DHT22;45045;45.440;9.178;2022-12-22T16:59:20;11.70;99.90
32400;DHT22;45045;45.440;9.178;2022-12-22T17:01:54;11.70;99.90
32400;DHT22;45045;45.440;9.178;2022-12-22T17:04:24;12.00;99.90
32400;DHT22;45045;45.440;9.178;2022-12-22T17:06:53;13.00;99.90
32400;DHT22;45045;45.440;9.178;2022-12-22T17:09:33;13.70;99.90
32400;DHT22;45045;45.440;9.178;2022-12-22T17:12:03;13.40;99.90
32400;DHT22;45045;45.440;9.178;2022-12-22T17:14:37;13.10;99.90
32400;DHT22;45045;45.440;9.178;2022-12-22T17:17:03;12.70;99.90
32400;DHT22;45045;45.440;9.178;2022-12-22T17:19:29;12.40;99.90
32400;DHT22;45045;45.440;9.178;2022-12-22T17:21:57;12.30;99.90
32400;DHT22;45045;45.440;9.178;2022-12-22T17:24:23;12.10;99.90
32400;DHT22;45045;45.440;9.178;2022-12-22T17:26:51;12.00;99.90
32400;DHT22;45045;45.440;9.178;2022-12-22T17:29:21;12.10;99.90
32400;DHT22;45045;45.440;9.178;2022-12-22T17:31:48;12.00;99.90
32400;DHT22;45045;45.440;9.178;2022-12-22T17:34:16;12.00;99.90
32400;DHT22;45045;45.440;9.178;2022-12-22T17:36:44;12.10;99.90
32400;DHT22;45045;45.440;9.178;2022-12-22T17:39:15;12.00;99.90
32400;DHT22;45045;45.440;9.178;2022-12-22T17:41:42;11.90;99.90
32400;DHT22;45045;45.440;9.178;2022-12-22T17:44:14;11.90;99.90
32400;DHT22;45045;45.440;9.178;2022-12-22T17:46:40;11.90;99.90
32400;DHT22;45045;45.440;9.178;2022-12-22T17:49:06;11.80;99.90
32400;DHT22;45045;45.440;9.178;2022-12-22T17:51:32;11.80;99.90
32400;DHT22;45045;45.440;9.178;2022-12-22T17:53:58;11.70;99.90
32400;DHT22;45045;45.440;9.178;2022-12-22T17:56:26;11.70;99.90
32400;DHT22;45045;45.440;9.178;2022-12-22T17:58:52;11.70;99.90
32400;DHT22;45045;45.440;9.178;2022-12-22T18:01:23;11.60;99.90
32400;DHT22;45045;45.440;9.178;2022-12-22T18:03:49;11.60;99.90